createdAt,value
2018-06-28T00:00:37.592Z,95.80
2018-06-28T00:03:05.777Z,96.70
2018-06-28T00:05:34.028Z,97.60
2018-06-28T00:08:02.386Z,97.90
2018-06-28T00:10:30.651Z,98.40
2018-06-28T00:12:58.933Z,99.10
2018-06-28T00:15:27.288Z,99.90
2018-06-28T00:17:55.511Z,99.90
2018-06-28T00:20:23.889Z,99.90
2018-06-28T00:22:52.200Z,99.90
2018-06-28T00:27:49.010Z,99.90
2018-06-28T00:30:17.433Z,99.90
2018-06-28T00:35:13.909Z,99.90
2018-06-28T00:37:42.329Z,99.90
2018-06-28T00:40:10.873Z,99.90
2018-06-28T00:42:39.297Z,99.90
2018-06-28T00:45:07.822Z,99.90
2018-06-28T00:47:36.229Z,99.90
2018-06-28T00:50:04.703Z,99.90
2018-06-28T00:52:33.065Z,99.90
2018-06-28T00:55:01.782Z,99.90
2018-06-28T00:57:30.158Z,99.90
2018-06-28T00:59:58.535Z,99.90
2018-06-28T01:02:26.979Z,99.90
2018-06-28T01:04:55.313Z,99.90
2018-06-28T01:07:23.639Z,99.90
2018-06-28T01:09:51.916Z,99.90
2018-06-28T01:12:20.289Z,99.90
2018-06-28T01:14:48.585Z,99.90
2018-06-28T01:17:16.884Z,99.90
2018-06-28T01:19:45.397Z,99.90
2018-06-28T01:22:13.752Z,99.90
2018-06-28T01:24:42.028Z,99.90
2018-06-28T01:27:10.340Z,99.90
2018-06-28T01:29:38.670Z,99.90
2018-06-28T01:32:06.961Z,99.90
2018-06-28T01:34:35.278Z,99.90
2018-06-28T01:37:03.633Z,99.90
2018-06-28T01:39:31.943Z,99.90
2018-06-28T01:42:11.620Z,99.90
2018-06-28T01:44:39.946Z,99.90
2018-06-28T01:47:08.255Z,99.90
2018-06-28T01:49:36.840Z,99.90
2018-06-28T01:52:05.164Z,99.90
2018-06-28T01:54:33.453Z,99.90
2018-06-28T01:57:01.874Z,99.90
2018-06-28T01:59:30.779Z,99.90
2018-06-28T02:01:59.086Z,99.90
2018-06-28T02:04:27.602Z,99.90
2018-06-28T02:06:55.991Z,99.90
2018-06-28T02:09:24.386Z,99.90
2018-06-28T02:11:52.805Z,99.90
2018-06-28T02:14:21.232Z,99.90
2018-06-28T02:16:49.581Z,99.90
2018-06-28T02:19:17.994Z,99.90
2018-06-28T02:21:46.414Z,99.90
2018-06-28T02:24:14.812Z,99.90
2018-06-28T02:26:43.265Z,99.90
2018-06-28T02:29:11.670Z,99.90
2018-06-28T02:31:40.050Z,99.90
2018-06-28T02:34:08.329Z,99.90
2018-06-28T02:36:36.568Z,99.90
2018-06-28T02:39:09.197Z,99.90
2018-06-28T02:41:37.416Z,99.90
2018-06-28T02:44:05.807Z,99.90
2018-06-28T02:46:34.181Z,99.90
2018-06-28T02:49:02.386Z,99.90
2018-06-28T02:51:30.567Z,99.90
2018-06-28T02:53:58.808Z,99.90
2018-06-28T02:56:27.018Z,99.90
2018-06-28T02:58:55.342Z,99.90
2018-06-28T03:01:23.584Z,99.90
2018-06-28T03:03:51.802Z,99.90
2018-06-28T03:06:20.004Z,99.90
2018-06-28T03:08:48.316Z,99.90
2018-06-28T03:11:16.657Z,99.90
2018-06-28T03:16:12.928Z,99.90
2018-06-28T03:18:41.147Z,99.90
2018-06-28T03:21:09.401Z,99.90
2018-06-28T03:23:37.584Z,99.90
2018-06-28T03:26:05.844Z,99.90
2018-06-28T03:31:24.702Z,99.90
2018-06-28T03:33:52.979Z,99.90
2018-06-28T03:36:21.172Z,99.90
2018-06-28T03:38:49.445Z,99.90
2018-06-28T03:41:17.690Z,99.90
2018-06-28T03:43:45.974Z,99.90
2018-06-28T03:46:14.287Z,99.90
2018-06-28T03:48:42.576Z,99.90
2018-06-28T03:51:10.883Z,99.90
2018-06-28T03:53:39.112Z,99.90
2018-06-28T03:56:07.407Z,99.90
2018-06-28T03:58:35.805Z,99.90
2018-06-28T04:01:04.072Z,99.90
2018-06-28T04:03:32.320Z,99.90
2018-06-28T04:06:00.618Z,99.90
2018-06-28T04:08:28.932Z,99.90
2018-06-28T04:10:57.253Z,99.90
2018-06-28T04:13:25.641Z,99.90
2018-06-28T04:15:54.008Z,99.90
2018-06-28T04:18:22.281Z,99.90
2018-06-28T04:20:50.572Z,99.90
2018-06-28T04:23:18.867Z,99.90
2018-06-28T04:25:47.145Z,99.90
2018-06-28T04:28:15.412Z,99.90
2018-06-28T04:30:43.689Z,99.90
2018-06-28T04:33:11.969Z,99.90
2018-06-28T04:35:40.330Z,99.90
2018-06-28T04:38:08.524Z,99.90
2018-06-28T04:40:36.667Z,99.90
2018-06-28T04:43:04.812Z,99.90
2018-06-28T04:45:33.004Z,99.90
2018-06-28T04:48:01.193Z,99.90
2018-06-28T04:50:29.340Z,99.90
2018-06-28T04:52:57.587Z,99.90
2018-06-28T04:55:25.800Z,99.90
2018-06-28T04:57:54.011Z,99.90
2018-06-28T05:00:22.155Z,99.90
2018-06-28T05:02:50.363Z,99.90
2018-06-28T05:05:18.558Z,99.90
2018-06-28T05:07:46.782Z,99.90
2018-06-28T05:10:15.044Z,99.90
2018-06-28T05:12:43.334Z,99.90
2018-06-28T05:15:11.528Z,99.90
2018-06-28T05:17:39.705Z,99.30
2018-06-28T05:20:07.866Z,98.60
2018-06-28T05:25:04.066Z,96.70
2018-06-28T05:27:32.274Z,97.30
2018-06-28T05:30:00.834Z,97.50
2018-06-28T05:32:29.002Z,97.40
2018-06-28T05:34:57.222Z,97.30
2018-06-28T05:37:25.426Z,96.70
2018-06-28T05:39:53.605Z,96.90
2018-06-28T05:42:21.853Z,96.80
2018-06-28T05:44:50.097Z,96.10
2018-06-28T05:47:18.567Z,95.60
2018-06-28T05:49:46.851Z,95.20
2018-06-28T05:52:15.217Z,94.90
2018-06-28T05:54:43.457Z,94.50
2018-06-28T05:57:11.671Z,94.10
2018-06-28T05:59:39.853Z,93.90
2018-06-28T06:04:36.065Z,93.90
2018-06-28T06:07:04.267Z,94.40
2018-06-28T06:09:32.624Z,94.20
2018-06-28T06:12:00.919Z,94.00
2018-06-28T06:14:29.356Z,93.60
2018-06-28T06:16:57.795Z,93.10
2018-06-28T06:19:26.060Z,92.60
2018-06-28T06:21:54.282Z,92.30
2018-06-28T06:24:22.461Z,91.50
2018-06-28T06:26:50.815Z,91.20
2018-06-28T06:29:19.042Z,90.80
2018-06-28T06:31:47.337Z,90.20
2018-06-28T06:34:15.521Z,90.10
2018-06-28T06:36:43.713Z,89.60
2018-06-28T06:39:12.280Z,90.00
2018-06-28T06:41:40.519Z,89.20
2018-06-28T06:44:08.681Z,88.50
2018-06-28T06:46:36.830Z,88.80
2018-06-28T06:49:05.189Z,89.80
2018-06-28T06:51:33.433Z,89.60
2018-06-28T06:54:01.743Z,90.10
2018-06-28T06:56:29.953Z,89.80
2018-06-28T06:58:58.191Z,88.90
2018-06-28T07:01:26.524Z,89.20
2018-06-28T07:03:54.842Z,89.10
2018-06-28T07:06:23.129Z,88.70
2018-06-28T07:08:51.378Z,88.10
2018-06-28T07:11:19.646Z,87.40
2018-06-28T07:13:47.939Z,86.40
2018-06-28T07:16:16.212Z,85.40
2018-06-28T07:18:44.520Z,83.80
2018-06-28T07:21:12.755Z,86.50
2018-06-28T07:23:41.000Z,85.60
2018-06-28T07:26:09.223Z,85.60
2018-06-28T07:28:37.551Z,86.90
2018-06-28T07:31:05.727Z,87.70
2018-06-28T07:33:33.921Z,87.60
2018-06-28T07:36:02.239Z,86.70
2018-06-28T07:38:30.421Z,86.30
2018-06-28T07:40:58.613Z,85.00
2018-06-28T07:43:26.767Z,85.00
2018-06-28T07:45:54.950Z,85.10
2018-06-28T07:48:23.140Z,84.50
2018-06-28T07:50:51.468Z,83.70
2018-06-28T07:53:19.671Z,83.10
2018-06-28T07:55:47.963Z,82.80
2018-06-28T07:58:16.139Z,80.80
2018-06-28T08:00:44.379Z,80.40
2018-06-28T08:03:12.539Z,80.40
2018-06-28T08:05:40.712Z,80.60
2018-06-28T08:08:08.952Z,80.60
2018-06-28T08:10:37.111Z,81.20
2018-06-28T08:13:05.306Z,79.00
2018-06-28T08:15:33.475Z,79.60
2018-06-28T08:18:01.647Z,78.80
2018-06-28T08:20:29.841Z,80.20
2018-06-28T08:22:58.003Z,80.00
2018-06-28T08:25:26.228Z,81.80
2018-06-28T08:27:54.435Z,80.50
2018-06-28T08:30:22.702Z,77.80
2018-06-28T08:32:50.894Z,78.00
2018-06-28T08:35:19.060Z,77.10
2018-06-28T08:37:47.388Z,75.40
2018-06-28T08:40:15.593Z,76.40
2018-06-28T08:42:43.767Z,76.80
2018-06-28T08:45:12.020Z,74.90
2018-06-28T08:47:40.180Z,74.70
2018-06-28T08:50:08.408Z,74.20
2018-06-28T08:52:36.578Z,74.40
2018-06-28T08:55:05.474Z,75.50
2018-06-28T08:57:33.695Z,74.90
2018-06-28T09:00:01.832Z,74.60
2018-06-28T09:02:29.999Z,72.00
2018-06-28T09:07:26.132Z,73.50
2018-06-28T09:09:54.498Z,73.40
2018-06-28T09:12:22.670Z,73.80
2018-06-28T09:14:51.412Z,74.40
2018-06-28T09:17:19.640Z,72.90
2018-06-28T09:19:47.864Z,74.60
2018-06-28T09:22:16.090Z,73.50
2018-06-28T09:24:44.347Z,72.40
2018-06-28T09:27:12.560Z,71.40
2018-06-28T09:29:40.723Z,71.70
2018-06-28T09:32:08.899Z,70.30
2018-06-28T09:34:37.091Z,71.10
2018-06-28T09:37:05.479Z,71.30
2018-06-28T09:39:33.643Z,70.70
2018-06-28T09:42:01.976Z,70.00
2018-06-28T09:44:30.145Z,69.10
2018-06-28T09:46:58.321Z,70.30
2018-06-28T09:49:26.503Z,69.50
2018-06-28T09:51:54.639Z,69.50
2018-06-28T09:54:22.819Z,71.80
2018-06-28T09:56:50.993Z,70.70
2018-06-28T09:59:19.304Z,68.60
2018-06-28T10:01:47.496Z,69.60
2018-06-28T10:04:15.944Z,69.30
2018-06-28T10:06:44.159Z,69.60
2018-06-28T10:09:12.332Z,67.90
2018-06-28T10:11:40.564Z,67.10
2018-06-28T10:14:08.901Z,68.60
2018-06-28T10:16:37.064Z,68.60
2018-06-28T10:19:05.455Z,70.50
2018-06-28T10:21:33.741Z,72.40
2018-06-28T10:24:02.052Z,71.80
2018-06-28T10:26:35.041Z,68.10
2018-06-28T10:29:03.250Z,67.20
2018-06-28T10:31:31.449Z,67.90
2018-06-28T10:33:59.630Z,67.20
2018-06-28T10:36:28.115Z,69.40
2018-06-28T10:38:56.403Z,69.60
2018-06-28T10:41:24.764Z,70.50
2018-06-28T10:43:53.065Z,70.60
2018-06-28T10:46:21.259Z,70.40
2018-06-28T10:48:49.487Z,70.40
2018-06-28T10:51:18.408Z,70.30
2018-06-28T10:53:46.588Z,69.50
2018-06-28T10:56:14.802Z,69.80
2018-06-28T10:58:43.063Z,69.40
2018-06-28T11:01:11.383Z,70.20
2018-06-28T11:03:39.704Z,68.40
2018-06-28T11:06:07.915Z,69.00
2018-06-28T11:08:36.182Z,68.40
2018-06-28T11:11:04.451Z,67.40
2018-06-28T11:13:32.694Z,66.70
2018-06-28T11:16:00.965Z,65.00
2018-06-28T11:18:29.460Z,65.50
2018-06-28T11:20:57.618Z,66.90
2018-06-28T11:23:27.907Z,67.80
2018-06-28T11:25:59.844Z,68.20
2018-06-28T11:28:28.105Z,68.20
2018-06-28T11:30:56.298Z,67.20
2018-06-28T11:33:24.559Z,67.30
2018-06-28T11:35:57.609Z,66.00
2018-06-28T11:38:25.942Z,63.10
2018-06-28T11:40:54.335Z,64.60
2018-06-28T11:43:22.506Z,63.50
2018-06-28T11:45:50.721Z,64.60
2018-06-28T11:48:18.976Z,64.40
2018-06-28T11:50:47.253Z,60.60
2018-06-28T11:53:15.586Z,61.60
2018-06-28T11:55:43.783Z,61.70
2018-06-28T11:58:11.959Z,61.40
2018-06-28T12:00:40.238Z,61.80
2018-06-28T12:03:08.427Z,62.60
2018-06-28T12:05:36.745Z,61.00
2018-06-28T12:08:05.070Z,61.30
2018-06-28T12:10:33.355Z,61.00
2018-06-28T12:13:01.559Z,59.50
2018-06-28T12:17:57.686Z,58.50
2018-06-28T12:20:25.885Z,58.00
2018-06-28T12:22:54.084Z,57.70
2018-06-28T12:25:22.316Z,57.70
2018-06-28T12:27:50.529Z,57.70
2018-06-28T12:30:18.681Z,57.20
2018-06-28T12:32:46.885Z,57.10
2018-06-28T12:35:15.079Z,58.30
2018-06-28T12:37:43.252Z,56.00
2018-06-28T12:40:11.428Z,57.00
2018-06-28T12:42:39.680Z,55.30
2018-06-28T12:45:07.866Z,54.50
2018-06-28T12:47:52.080Z,57.50
2018-06-28T12:50:20.777Z,56.10
2018-06-28T12:52:53.698Z,56.00
2018-06-28T12:55:22.349Z,55.80
2018-06-28T12:57:51.000Z,54.80
2018-06-28T13:00:19.467Z,56.00
2018-06-28T13:02:47.684Z,56.10
2018-06-28T13:05:16.631Z,55.80
2018-06-28T13:07:44.875Z,55.80
2018-06-28T13:10:14.444Z,56.40
2018-06-28T13:12:42.620Z,55.60
2018-06-28T13:15:11.995Z,56.40
2018-06-28T13:17:40.655Z,56.40
2018-06-28T13:20:09.416Z,55.70
2018-06-28T13:22:37.933Z,55.20
2018-06-28T13:25:06.989Z,53.70
2018-06-28T13:27:35.183Z,56.20
2018-06-28T13:30:04.388Z,55.60
2018-06-28T13:32:32.584Z,53.90
2018-06-28T13:35:00.783Z,55.40
2018-06-28T13:37:28.961Z,55.80
2018-06-28T13:39:57.139Z,56.20
2018-06-28T13:42:25.348Z,56.50
2018-06-28T13:44:53.759Z,57.20
2018-06-28T13:47:22.049Z,58.80
2018-06-28T13:49:50.332Z,58.60
2018-06-28T13:52:18.576Z,59.50
2018-06-28T13:54:46.736Z,58.60
2018-06-28T13:57:14.915Z,57.40
2018-06-28T13:59:43.079Z,58.80
2018-06-28T14:02:11.270Z,57.10
2018-06-28T14:04:39.426Z,55.80
2018-06-28T14:07:07.616Z,56.30
2018-06-28T14:09:35.858Z,56.10
2018-06-28T14:12:04.044Z,56.40
2018-06-28T14:14:32.214Z,55.20
2018-06-28T14:17:00.415Z,55.20
2018-06-28T14:19:28.661Z,54.90
2018-06-28T14:21:57.065Z,55.30
2018-06-28T14:24:25.306Z,54.10
2018-06-28T14:26:53.478Z,54.00
2018-06-28T14:29:21.677Z,55.40
2018-06-28T14:31:49.924Z,55.40
2018-06-28T14:34:18.099Z,55.90
2018-06-28T14:36:47.504Z,55.70
2018-06-28T14:39:15.669Z,57.30
2018-06-28T14:41:43.914Z,58.00
2018-06-28T14:44:12.061Z,58.00
2018-06-28T14:46:40.221Z,58.50
2018-06-28T14:49:08.456Z,59.10
2018-06-28T14:51:36.651Z,59.10
2018-06-28T14:54:04.836Z,59.70
2018-06-28T14:56:33.048Z,60.20
2018-06-28T14:59:01.246Z,59.90
2018-06-28T15:01:29.455Z,59.40
2018-06-28T15:03:57.829Z,60.70
2018-06-28T15:06:25.997Z,60.40
2018-06-28T15:08:54.181Z,60.70
2018-06-28T15:11:22.452Z,60.30
2018-06-28T15:13:50.712Z,60.80
2018-06-28T15:16:18.900Z,58.90
2018-06-28T15:18:47.308Z,61.70
2018-06-28T15:21:15.541Z,60.10
2018-06-28T15:23:43.731Z,58.30
2018-06-28T15:26:11.944Z,57.80
2018-06-28T15:28:40.305Z,58.80
2018-06-28T15:31:08.781Z,59.60
2018-06-28T15:33:37.008Z,59.40
2018-06-28T15:36:05.210Z,59.50
2018-06-28T15:38:33.482Z,58.10
2018-06-28T15:41:01.680Z,57.60
2018-06-28T15:43:29.936Z,59.00
2018-06-28T15:45:58.168Z,58.30
2018-06-28T15:48:26.346Z,57.80
2018-06-28T15:50:54.526Z,58.80
2018-06-28T15:53:22.738Z,59.60
2018-06-28T15:55:50.983Z,59.50
2018-06-28T15:58:19.187Z,59.40
2018-06-28T16:00:47.375Z,59.60
2018-06-28T16:03:15.635Z,59.00
2018-06-28T16:05:43.812Z,59.90
2018-06-28T16:08:12.031Z,58.60
2018-06-28T16:10:40.314Z,58.90
2018-06-28T16:13:08.489Z,59.10
2018-06-28T16:15:36.797Z,59.30
2018-06-28T16:18:05.077Z,59.30
2018-06-28T16:20:33.275Z,59.40
2018-06-28T16:23:01.914Z,59.10
2018-06-28T16:25:30.112Z,59.10
2018-06-28T16:27:58.295Z,58.80
2018-06-28T16:30:26.567Z,58.70
2018-06-28T16:32:54.742Z,57.90
2018-06-28T16:35:22.940Z,58.00
2018-06-28T16:37:51.247Z,57.80
2018-06-28T16:40:19.423Z,57.50
2018-06-28T16:42:47.587Z,58.00
2018-06-28T16:45:15.816Z,57.70
2018-06-28T16:47:44.675Z,57.10
2018-06-28T16:50:12.943Z,57.00
2018-06-28T16:52:41.148Z,58.60
2018-06-28T16:55:09.376Z,58.80
2018-06-28T16:57:37.598Z,59.40
2018-06-28T17:00:06.474Z,59.80
2018-06-28T17:02:34.721Z,60.50
2018-06-28T17:05:02.928Z,60.90
2018-06-28T17:07:31.083Z,61.30
2018-06-28T17:09:59.387Z,61.20
2018-06-28T17:12:27.627Z,61.60
2018-06-28T17:14:55.817Z,61.60
2018-06-28T17:17:24.053Z,61.60
2018-06-28T17:19:52.336Z,61.80
2018-06-28T17:22:20.541Z,62.10
2018-06-28T17:24:48.843Z,62.20
2018-06-28T17:27:17.029Z,62.20
2018-06-28T17:29:46.278Z,62.30
2018-06-28T17:32:14.495Z,62.40
2018-06-28T17:34:42.722Z,62.80
2018-06-28T17:37:10.942Z,63.10
2018-06-28T17:39:39.280Z,63.40
2018-06-28T17:42:07.545Z,63.50
2018-06-28T17:44:35.740Z,64.00
2018-06-28T17:47:03.940Z,64.20
2018-06-28T17:49:32.145Z,63.20
2018-06-28T17:52:00.352Z,62.40
2018-06-28T17:54:28.597Z,61.40
2018-06-28T17:56:57.047Z,62.10
2018-06-28T17:59:25.249Z,62.40
2018-06-28T18:01:53.615Z,61.60
2018-06-28T18:04:21.819Z,61.10
2018-06-28T18:06:50.051Z,62.00
2018-06-28T18:09:18.228Z,61.60
2018-06-28T18:11:47.004Z,61.00
2018-06-28T18:14:15.240Z,61.00
2018-06-28T18:16:43.436Z,61.60
2018-06-28T18:19:11.644Z,61.80
2018-06-28T18:21:39.839Z,62.10
2018-06-28T18:24:08.152Z,62.40
2018-06-28T18:26:36.367Z,62.50
2018-06-28T18:29:04.638Z,62.20
2018-06-28T18:31:32.883Z,62.20
2018-06-28T18:34:01.200Z,62.10
2018-06-28T18:36:29.375Z,63.30
2018-06-28T18:38:57.737Z,63.00
2018-06-28T18:41:26.009Z,64.10
2018-06-28T18:43:54.355Z,64.60
2018-06-28T18:46:22.531Z,64.90
2018-06-28T18:48:50.747Z,64.90
2018-06-28T18:51:19.452Z,65.50
2018-06-28T18:53:47.660Z,65.90
2018-06-28T18:56:15.876Z,66.00
2018-06-28T18:58:44.097Z,66.40
2018-06-28T19:01:12.300Z,66.60
2018-06-28T19:03:40.511Z,67.20
2018-06-28T19:06:08.727Z,67.10
2018-06-28T19:08:37.049Z,67.50
2018-06-28T19:11:05.177Z,67.80
2018-06-28T19:13:37.618Z,68.40
2018-06-28T19:16:11.723Z,68.80
2018-06-28T19:18:39.887Z,69.70
2018-06-28T19:21:13.552Z,70.10
2018-06-28T19:23:47.218Z,70.90
2018-06-28T19:26:16.261Z,71.20
2018-06-28T19:28:44.543Z,71.80
2018-06-28T19:31:18.139Z,72.80
2018-06-28T19:33:46.372Z,72.20
2018-06-28T19:36:14.573Z,72.90
2018-06-28T19:38:48.240Z,73.80
2018-06-28T19:41:21.871Z,74.00
2018-06-28T19:43:50.087Z,74.30
2018-06-28T19:46:18.312Z,74.80
2018-06-28T19:48:46.645Z,75.00
2018-06-28T19:52:18.757Z,75.50
2018-06-28T19:54:46.946Z,75.90
2018-06-28T19:57:15.134Z,76.20
2018-06-28T19:59:47.147Z,76.20
2018-06-28T20:02:21.654Z,76.20
2018-06-28T20:04:49.912Z,76.40
2018-06-28T20:07:18.146Z,76.90
2018-06-28T20:09:46.339Z,77.10
2018-06-28T20:12:19.976Z,76.90
2018-06-28T20:14:53.555Z,77.10
2018-06-28T20:17:27.228Z,77.10
2018-06-28T20:20:00.879Z,76.80
2018-06-28T20:22:29.087Z,76.90
2018-06-28T20:24:57.273Z,77.20
2018-06-28T20:27:30.783Z,76.70
2018-06-28T20:30:04.444Z,76.70
2018-06-28T20:32:38.183Z,76.10
2018-06-28T20:35:06.356Z,77.10
2018-06-28T20:37:34.618Z,77.50
2018-06-28T20:40:02.895Z,77.60
2018-06-28T20:42:36.332Z,78.10
2018-06-28T20:45:04.708Z,78.70
2018-06-28T20:50:28.408Z,80.30
2018-06-28T20:55:35.715Z,82.10
2018-06-28T20:58:03.979Z,82.80
2018-06-28T21:00:34.311Z,83.90
2018-06-28T21:03:14.877Z,84.50
2018-06-28T21:05:43.127Z,85.10
2018-06-28T21:08:13.289Z,85.60
2018-06-28T21:13:38.663Z,86.70
2018-06-28T21:16:07.884Z,87.40
2018-06-28T21:18:36.400Z,88.00
2018-06-28T21:21:04.650Z,88.30
2018-06-28T21:23:32.900Z,88.90
2018-06-28T21:26:01.087Z,89.60
2018-06-28T21:28:29.329Z,89.60
2018-06-28T21:30:57.635Z,90.20
2018-06-28T21:35:53.858Z,90.40
2018-06-28T21:38:22.154Z,90.60
2018-06-28T21:40:50.475Z,90.80
2018-06-28T21:43:24.596Z,90.90
2018-06-28T21:45:52.831Z,91.10
2018-06-28T21:48:30.785Z,91.30
2018-06-28T21:51:11.579Z,91.40
2018-06-28T21:53:39.848Z,91.60
2018-06-28T21:56:08.079Z,91.80
2018-06-28T21:58:36.316Z,92.20
2018-06-28T22:01:04.639Z,92.10
2018-06-28T22:03:32.824Z,92.20
2018-06-28T22:06:01.068Z,92.30
2018-06-28T22:08:29.240Z,92.40
2018-06-28T22:10:57.584Z,92.70
2018-06-28T22:13:25.857Z,92.80
2018-06-28T22:15:54.075Z,93.00
2018-06-28T22:18:22.342Z,93.00
2018-06-28T22:20:50.534Z,93.20
2018-06-28T22:23:18.975Z,93.40
2018-06-28T22:25:53.808Z,93.80
2018-06-28T22:28:22.007Z,93.40
2018-06-28T22:30:50.184Z,93.40
2018-06-28T22:33:18.436Z,93.50
2018-06-28T22:35:46.691Z,94.30
2018-06-28T22:38:14.897Z,94.60
2018-06-28T22:40:43.132Z,94.80
2018-06-28T22:43:11.440Z,94.80
2018-06-28T22:45:39.645Z,94.90
2018-06-28T22:48:07.951Z,94.70
2018-06-28T22:53:05.223Z,94.70
2018-06-28T22:55:33.418Z,94.80
2018-06-28T22:58:01.642Z,94.80
2018-06-28T23:00:30.712Z,94.80
2018-06-28T23:02:58.982Z,94.80
2018-06-28T23:05:27.204Z,95.00
2018-06-28T23:07:55.395Z,95.00
2018-06-28T23:10:23.758Z,95.00
2018-06-28T23:12:52.001Z,95.00
2018-06-28T23:15:20.205Z,95.10
2018-06-28T23:17:48.419Z,95.30
2018-06-28T23:20:16.686Z,95.50
2018-06-28T23:22:46.284Z,96.90
2018-06-28T23:25:28.272Z,96.40
2018-06-28T23:27:56.484Z,96.40
2018-06-28T23:30:24.676Z,96.40
2018-06-28T23:32:52.928Z,96.10
2018-06-28T23:35:21.123Z,96.00
2018-06-28T23:37:49.368Z,96.10
2018-06-28T23:43:32.656Z,96.30
2018-06-28T23:46:00.919Z,96.50
2018-06-28T23:48:29.762Z,96.40
2018-06-28T23:50:57.955Z,96.30
2018-06-28T23:53:26.153Z,96.20
